Time;durP1;ratioP1;P1;durP2;ratioP2;P2;SDS_P1;SDS_P2;PMS_P1;PMS_P2;Temp;Humidity;BMP_temperature;BMP_pressure;BME280_temperature;BME280_humidity;BME280_pressure;Samples;Min_cycle;Max_cycle;Signal;HPM_P1;HPM_P2
2023/09/06 00:01:07;;;;;;;3.10;2.80;;;;;;;24.31;64.77;97916.59;4999877;28;20222;-27
2023/09/06 00:03:36;;;;;;;3.30;2.50;;;;;;;24.31;64.80;97919.16;5003265;28;20203;-27
2023/09/06 00:06:04;;;;;;;2.73;2.40;;;;;;;24.31;65.06;97914.88;5005948;28;20218;-27
2023/09/06 00:08:34;;;;;;;2.77;2.57;;;;;;;24.31;64.85;97908.88;4993446;28;20194;-27
2023/09/06 00:11:04;;;;;;;2.80;2.43;;;;;;;24.24;65.17;97907.84;5005136;28;20593;-27
2023/09/06 00:13:32;;;;;;;2.80;2.60;;;;;;;24.30;65.32;97914.84;5012362;28;20224;-27
2023/09/06 00:16:02;;;;;;;2.77;2.57;;;;;;;24.31;65.14;97914.03;5009509;28;20202;-27
2023/09/06 00:18:30;;;;;;;2.67;2.47;;;;;;;24.30;64.85;97920.84;5009797;28;20293;-27
2023/09/06 00:20:57;;;;;;;2.93;2.63;;;;;;;24.30;65.41;97915.72;5011426;28;20214;-27
2023/09/06 00:23:24;;;;;;;2.73;2.40;;;;;;;24.30;64.83;97914.84;5011711;28;20210;-29
2023/09/06 00:25:54;;;;;;;3.00;2.70;;;;;;;24.31;65.09;97914.03;5010500;28;20207;-29
2023/09/06 00:28:23;;;;;;;2.90;2.57;;;;;;;24.30;65.32;97907.13;5005840;28;20206;-27
2023/09/06 00:30:51;;;;;;;2.93;2.63;;;;;;;24.27;65.52;97907.94;5008960;28;20234;-28
2023/09/06 00:33:17;;;;;;;2.73;2.50;;;;;;;24.31;65.28;97908.88;5008878;28;20723;-27
2023/09/06 00:35:44;;;;;;;2.73;2.53;;;;;;;24.31;65.17;97908.88;5011602;28;20769;-27
2023/09/06 00:38:10;;;;;;;2.90;2.60;;;;;;;24.28;65.18;97898.53;5012446;28;20194;-29
2023/09/06 00:40:37;;;;;;;3.10;2.80;;;;;;;24.29;65.38;97910.53;5011655;28;20226;-27
2023/09/06 00:43:05;;;;;;;2.47;2.27;;;;;;;24.30;65.24;97902.00;5059603;22;20588;-26
2023/09/06 00:45:44;;;;;;;2.80;2.60;;;;;;;24.29;65.32;97901.16;5058054;28;20266;-26
2023/09/06 00:48:17;;;;;;;2.67;2.47;;;;;;;24.31;65.12;97896.88;5033016;28;20244;-26
2023/09/06 00:50:43;;;;;;;2.47;2.27;;;;;;;24.30;65.13;97894.28;5051325;28;20232;-26
2023/09/06 00:53:10;;;;;;;2.63;2.43;;;;;;;24.30;65.48;97889.16;5046115;28;20221;-26
2023/09/06 00:55:37;;;;;;;3.20;2.50;;;;;;;24.29;65.18;97890.88;5047906;28;20282;-26
2023/09/06 00:58:07;;;;;;;2.90;2.60;;;;;;;24.27;65.39;97883.94;5033233;28;20193;-26
2023/09/06 01:00:35;;;;;;;3.30;3.00;;;;;;;24.29;65.35;97890.88;4999330;28;20198;-26
2023/09/06 01:03:05;;;;;;;2.57;2.33;;;;;;;24.28;65.36;97878.84;5030256;28;20221;-26
2023/09/06 01:06:05;;;;;;;2.43;2.23;;;;;;;24.29;65.70;97884.84;5037229;28;20200;-26
2023/09/06 01:08:36;;;;;;;2.90;2.60;;;;;;;24.30;65.16;97887.47;5031857;28;20656;-26
2023/09/06 01:11:21;;;;;;;2.67;2.43;;;;;;;24.30;65.48;97891.72;5017729;28;20208;-26
2023/09/06 01:13:55;;;;;;;2.80;2.60;;;;;;;24.30;65.02;97895.16;5051489;28;20203;-26
2023/09/06 01:16:28;;;;;;;2.80;2.60;;;;;;;24.29;65.30;97890.88;5051646;28;20193;-26
2023/09/06 01:18:55;;;;;;;2.87;2.67;;;;;;;24.29;65.42;97888.28;5042890;28;20583;-26
2023/09/06 01:21:29;;;;;;;2.40;2.20;;;;;;;24.29;65.05;97893.44;5009459;28;20430;-26
2023/09/06 01:23:56;;;;;;;2.60;2.40;;;;;;;24.31;65.46;97898.59;5033882;28;20428;-26
2023/09/06 01:26:23;;;;;;;3.20;2.90;;;;;;;24.29;65.24;97892.56;5017434;28;20248;-26
2023/09/06 01:28:49;;;;;;;2.53;2.33;;;;;;;24.28;65.61;97894.25;5033388;28;20197;-26
2023/09/06 01:31:16;;;;;;;2.50;2.30;;;;;;;24.28;65.05;97889.09;5016709;28;20196;-26
2023/09/06 01:33:43;;;;;;;2.73;2.53;;;;;;;24.28;65.26;97896.81;5050927;28;20691;-26
2023/09/06 01:36:10;;;;;;;2.90;2.60;;;;;;;24.28;65.36;97890.84;5035356;28;20202;-26
2023/09/06 01:38:36;;;;;;;3.00;2.70;;;;;;;24.27;65.20;97897.66;5051158;28;20236;-26
2023/09/06 01:41:03;;;;;;;2.83;2.60;;;;;;;24.28;65.35;97899.38;5046486;28;20246;-26
2023/09/06 01:43:31;;;;;;;2.63;2.43;;;;;;;24.28;65.42;97904.53;5046285;28;20220;-26
2023/09/06 01:45:58;;;;;;;2.50;2.30;;;;;;;24.27;65.23;97900.22;5053578;28;20201;-26
2023/09/06 01:48:24;;;;;;;3.50;2.77;;;;;;;24.27;65.47;97896.78;5049050;28;20214;-26
2023/09/06 01:50:53;;;;;;;3.60;2.47;;;;;;;24.26;65.43;97893.38;5053117;28;20228;-26
2023/09/06 01:53:22;;;;;;;3.23;2.73;;;;;;;24.26;65.57;97893.38;5043231;28;20217;-26
2023/09/06 01:55:49;;;;;;;2.47;2.27;;;;;;;24.26;65.74;97902.75;5039248;28;20198;-26
2023/09/06 01:58:16;;;;;;;2.80;2.60;;;;;;;24.26;65.23;97892.47;5039872;28;20374;-26
2023/09/06 02:00:44;;;;;;;2.50;2.30;;;;;;;24.26;65.39;97897.63;5051605;28;20200;-26
2023/09/06 02:03:13;;;;;;;2.50;2.30;;;;;;;24.26;65.56;97895.06;5045273;28;20221;-26
2023/09/06 02:05:43;;;;;;;2.50;2.30;;;;;;;24.22;65.73;97890.69;5046148;28;20351;-26
2023/09/06 02:08:10;;;;;;;2.50;2.30;;;;;;;24.24;65.39;97889.00;5046529;28;20217;-26
2023/09/06 02:10:37;;;;;;;2.37;2.17;;;;;;;24.26;65.32;97906.22;5050353;28;20626;-26
2023/09/06 02:13:04;;;;;;;2.73;2.53;;;;;;;24.26;65.39;97895.94;5052604;28;20363;-26
2023/09/06 02:15:30;;;;;;;3.80;2.37;;;;;;;24.27;65.39;97896.78;5054424;28;20198;-26
2023/09/06 02:17:57;;;;;;;2.60;2.40;;;;;;;24.26;65.57;97895.94;5053946;28;20271;-26
2023/09/06 02:20:25;;;;;;;2.33;2.13;;;;;;;24.26;65.79;97898.50;5054239;28;20228;-26
2023/09/06 02:22:55;;;;;;;2.53;2.33;;;;;;;24.26;65.78;97895.94;5053491;28;20217;-26
2023/09/06 02:25:30;;;;;;;2.70;2.47;;;;;;;24.27;65.54;97896.78;5054241;28;20247;-26
2023/09/06 02:27:57;;;;;;;3.00;2.10;;;;;;;24.27;65.79;97894.22;5052269;28;20225;-26
2023/09/06 02:30:24;;;;;;;2.80;2.50;;;;;;;24.26;65.40;97890.78;5048037;28;20243;-26
2023/09/06 02:32:51;;;;;;;2.60;2.40;;;;;;;24.26;65.49;97890.78;5045430;28;20217;-26
2023/09/06 02:35:19;;;;;;;2.70;2.50;;;;;;;24.27;65.60;97884.81;5053256;28;20251;-26
2023/09/06 02:37:45;;;;;;;2.83;2.53;;;;;;;24.27;65.93;97892.53;5054237;28;20193;-26
2023/09/06 02:40:13;;;;;;;2.30;2.10;;;;;;;24.27;65.71;97891.63;5043260;28;20288;-26
2023/09/06 02:42:40;;;;;;;2.33;2.13;;;;;;;24.29;65.65;97895.13;5047292;28;20796;-25
2023/09/06 02:45:11;;;;;;;2.70;2.43;;;;;;;24.28;65.88;97890.84;5046541;28;20260;-26
2023/09/06 02:47:39;;;;;;;2.50;2.30;;;;;;;24.23;65.81;97885.59;5047237;28;20217;-26
2023/09/06 02:50:06;;;;;;;2.53;2.33;;;;;;;24.27;65.40;97891.63;5041140;28;20663;-26
2023/09/06 02:52:35;;;;;;;2.50;2.30;;;;;;;24.27;65.54;97892.53;5037469;28;20656;-26
2023/09/06 02:55:05;;;;;;;2.33;2.13;;;;;;;24.28;65.39;97896.81;5042725;28;20201;-26
2023/09/06 02:57:31;;;;;;;2.60;2.40;;;;;;;24.28;65.54;97891.69;5033435;28;20273;-26
2023/09/06 02:59:58;;;;;;;3.37;2.40;;;;;;;24.29;65.46;97892.56;5041601;28;20625;-26
2023/09/06 03:02:25;;;;;;;2.67;2.43;;;;;;;24.28;65.37;97885.69;5035796;28;20271;-26
2023/09/06 03:04:57;;;;;;;2.70;2.50;;;;;;;24.28;65.75;97889.09;5041981;28;20224;-26
2023/09/06 03:07:24;;;;;;;2.40;2.20;;;;;;;24.28;65.94;97893.41;5046939;28;20228;-26
2023/09/06 03:09:51;;;;;;;2.40;2.20;;;;;;;24.28;65.74;97891.69;5053691;28;20296;-26
2023/09/06 03:12:18;;;;;;;2.40;2.20;;;;;;;24.28;65.75;97890.84;5053503;28;20212;-26
2023/09/06 03:14:44;;;;;;;3.10;2.63;;;;;;;24.29;65.53;97893.44;5048580;28;20256;-26
2023/09/06 03:17:11;;;;;;;2.70;2.50;;;;;;;24.28;65.77;97893.41;5036019;28;20209;-26
2023/09/06 03:19:41;;;;;;;2.20;2.00;;;;;;;24.28;65.50;97888.25;5033618;28;20202;-26
2023/09/06 03:22:09;;;;;;;2.37;2.17;;;;;;;24.24;65.75;97879.59;5034741;28;20223;-26
2023/09/06 03:24:40;;;;;;;2.57;2.37;;;;;;;24.29;65.89;97882.28;5034646;28;20389;-26
2023/09/06 03:27:07;;;;;;;2.47;2.27;;;;;;;24.29;65.74;97885.72;5033270;28;20256;-26
2023/09/06 03:29:37;;;;;;;2.40;2.20;;;;;;;24.29;65.90;97887.41;5033736;28;20202;-26
2023/09/06 03:32:10;;;;;;;2.70;2.50;;;;;;;24.22;65.49;97875.28;5039633;28;20620;-26
2023/09/06 03:34:37;;;;;;;2.80;2.60;;;;;;;24.28;65.90;97878.84;5040664;28;20665;-26
2023/09/06 03:37:04;;;;;;;2.37;2.17;;;;;;;24.28;65.46;97891.69;5041322;28;20236;-26
2023/09/06 03:39:32;;;;;;;2.40;2.20;;;;;;;24.29;65.85;97883.16;5044801;28;20197;-26
2023/09/06 03:42:08;;;;;;;2.53;2.33;;;;;;;24.31;65.38;97888.34;5039626;28;20230;-27
2023/09/06 03:44:37;;;;;;;2.50;2.30;;;;;;;24.31;65.38;97888.34;5043607;28;20572;-26
2023/09/06 03:47:06;;;;;;;2.50;2.30;;;;;;;24.31;65.75;97884.03;5040557;28;20226;-26
2023/09/06 03:49:35;;;;;;;2.60;2.40;;;;;;;24.27;65.45;97879.69;5035165;28;20665;-26
2023/09/06 03:52:04;;;;;;;2.40;2.20;;;;;;;24.33;65.45;97884.09;5034948;28;20236;-26
2023/09/06 03:54:34;;;;;;;2.90;2.70;;;;;;;24.32;65.81;97883.22;5034816;28;20638;-26
2023/09/06 03:57:01;;;;;;;2.73;2.53;;;;;;;24.33;65.72;97884.09;5035195;28;20197;-26
2023/09/06 03:59:28;;;;;;;2.60;2.40;;;;;;;24.33;65.75;97884.97;5032103;28;20248;-26
2023/09/06 04:01:55;;;;;;;2.67;2.40;;;;;;;24.32;65.30;97888.38;5034090;28;20221;-26
2023/09/06 04:04:23;;;;;;;2.40;2.20;;;;;;;24.32;65.74;97890.94;5034507;28;20289;-26
2023/09/06 04:06:49;;;;;;;2.40;2.20;;;;;;;24.33;65.49;97886.66;5034564;28;20193;-26
2023/09/06 04:09:19;;;;;;;2.60;2.40;;;;;;;24.32;65.66;97893.50;5034101;28;20206;-26
2023/09/06 04:11:46;;;;;;;2.40;2.20;;;;;;;24.32;65.70;97893.50;5035317;28;20304;-26
2023/09/06 04:14:14;;;;;;;2.60;2.40;;;;;;;24.33;65.74;97896.94;5037567;28;21290;-26
2023/09/06 04:16:40;;;;;;;2.30;2.10;;;;;;;24.19;65.79;97873.47;5034509;28;20207;-26
2023/09/06 04:19:07;;;;;;;2.50;2.30;;;;;;;24.32;65.48;97901.22;5037719;28;20205;-26
2023/09/06 04:21:33;;;;;;;2.30;2.10;;;;;;;24.31;65.50;97902.03;5047425;28;20621;-26
2023/09/06 04:24:00;;;;;;;2.70;2.47;;;;;;;24.31;65.84;97904.59;5050329;28;20236;-26
2023/09/06 04:26:27;;;;;;;2.57;2.37;;;;;;;24.29;65.50;97903.72;5034140;28;20671;-25
2023/09/06 04:28:54;;;;;;;2.40;2.20;;;;;;;24.30;65.97;97902.00;5032495;28;20217;-26
2023/09/06 04:31:20;;;;;;;2.97;2.43;;;;;;;24.29;65.36;97908.84;5040301;28;20214;-26
2023/09/06 04:33:47;;;;;;;2.50;2.30;;;;;;;24.30;64.98;97912.25;5033370;28;20202;-26
2023/09/06 04:36:14;;;;;;;3.23;2.93;;;;;;;24.28;64.20;97914.78;5034610;28;20213;-26
2023/09/06 04:38:40;;;;;;;2.97;2.77;;;;;;;24.28;63.71;97912.22;5050779;28;20201;-26
2023/09/06 04:41:07;;;;;;;3.97;3.13;;;;;;;24.28;63.23;97913.94;5047622;28;20682;-26
2023/09/06 04:43:34;;;;;;;3.50;3.20;;;;;;;24.27;63.59;97918.22;5031522;28;20221;-26
2023/09/06 04:46:01;;;;;;;3.33;3.03;;;;;;;24.27;63.27;97918.22;5032522;28;20271;-26
2023/09/06 04:48:28;;;;;;;3.27;2.87;;;;;;;24.27;63.42;97922.47;5032290;28;20592;-26
2023/09/06 04:50:56;;;;;;;3.40;3.10;;;;;;;24.27;63.02;97923.34;5035459;28;20201;-26
2023/09/06 04:53:23;;;;;;;5.13;2.80;;;;;;;24.28;62.88;97925.06;5035684;28;20682;-26
2023/09/06 04:55:49;;;;;;;3.50;3.20;;;;;;;24.28;62.94;97935.34;5029867;28;20205;-26
2023/09/06 04:58:18;;;;;;;7.47;3.60;;;;;;;24.27;63.05;97928.47;5032850;28;20194;-26
2023/09/06 05:00:47;;;;;;;3.50;3.20;;;;;;;24.27;63.10;97933.63;5031790;28;20304;-26
2023/09/06 05:03:17;;;;;;;3.60;3.30;;;;;;;24.27;62.78;97928.47;5038477;28;20267;-26
2023/09/06 05:05:45;;;;;;;3.77;3.40;;;;;;;24.26;62.65;97931.91;5031559;28;20193;-26
2023/09/06 05:08:12;;;;;;;4.63;3.47;;;;;;;24.26;62.74;97928.44;5050057;28;20576;-26
2023/09/06 05:10:41;;;;;;;3.40;3.10;;;;;;;24.26;62.78;97933.59;5045590;28;20228;-26
2023/09/06 05:13:08;;;;;;;4.80;3.50;;;;;;;24.26;62.67;97941.28;5039821;28;20252;-26
2023/09/06 05:15:35;;;;;;;4.13;3.73;;;;;;;24.26;63.04;97943.84;5051281;28;20576;-26
2023/09/06 05:18:03;;;;;;;5.10;3.30;;;;;;;24.26;63.07;97954.13;5042623;28;20260;-26
2023/09/06 05:20:35;;;;;;;5.70;3.50;;;;;;;24.25;62.94;97949.84;5041789;28;20196;-26
2023/09/06 05:23:09;;;;;;;4.53;3.37;;;;;;;24.25;62.58;97963.53;5051365;28;20662;-26
2023/09/06 05:25:36;;;;;;;4.17;3.40;;;;;;;24.26;62.81;97966.97;5029895;28;20201;-26
2023/09/06 05:28:08;;;;;;;7.77;3.83;;;;;;;24.25;62.65;97967.81;5039037;28;20634;-26
2023/09/06 05:30:43;;;;;;;4.57;3.47;;;;;;;24.25;62.81;97962.69;5050596;28;20224;-26
2023/09/06 05:33:10;;;;;;;3.80;3.50;;;;;;;24.24;62.81;97966.94;5044370;28;20712;-26
2023/09/06 05:35:37;;;;;;;7.20;4.10;;;;;;;24.25;62.92;97966.09;5045018;28;20236;-26
2023/09/06 05:38:04;;;;;;;5.63;3.57;;;;;;;24.25;63.10;97965.25;5025310;28;20197;-26
2023/09/06 05:40:32;;;;;;;3.87;3.47;;;;;;;24.25;62.95;97972.94;5032304;28;20200;-26
2023/09/06 05:42:59;;;;;;;4.77;3.67;;;;;;;24.25;63.06;97966.09;5038940;28;20225;-26
2023/09/06 05:45:26;;;;;;;5.97;3.97;;;;;;;24.25;62.91;97972.94;5042402;28;20212;-26
2023/09/06 05:47:53;;;;;;;4.30;3.43;;;;;;;24.25;63.03;97975.53;5037639;28;20643;-26
2023/09/06 05:50:20;;;;;;;4.57;3.60;;;;;;;24.26;63.21;97972.09;5048421;28;20203;-26
2023/09/06 05:52:46;;;;;;;5.37;3.70;;;;;;;24.25;63.00;97976.38;5050830;28;20299;-26
2023/09/06 05:55:13;;;;;;;4.27;3.83;;;;;;;24.26;62.97;97972.09;5048126;28;20664;-26
2023/09/06 05:57:39;;;;;;;6.77;3.80;;;;;;;24.26;62.92;97974.69;5035996;28;20197;-26
2023/09/06 06:00:12;;;;;;;4.77;3.30;;;;;;;24.26;62.96;97982.38;5041740;28;20300;-26
2023/09/06 06:02:39;;;;;;;5.60;3.67;;;;;;;24.26;63.20;97974.69;5043611;28;20271;-26
2023/09/06 06:05:06;;;;;;;5.13;3.77;;;;;;;24.26;63.30;97980.69;5034643;28;20259;-26
2023/09/06 06:07:33;;;;;;;4.53;3.50;;;;;;;24.26;63.32;97978.13;5026894;28;20283;-27
2023/09/06 06:09:59;;;;;;;6.97;3.90;;;;;;;24.27;63.02;97979.84;5040840;28;20200;-26
2023/09/06 06:12:27;;;;;;;4.70;3.77;;;;;;;24.26;63.50;97984.94;5041372;28;20220;-26
2023/09/06 06:14:53;;;;;;;4.70;4.00;;;;;;;24.27;62.87;97986.69;5045259;28;20236;-26
2023/09/06 06:17:20;;;;;;;5.57;3.67;;;;;;;24.27;63.32;97986.69;5047838;28;20247;-26
2023/09/06 06:19:47;;;;;;;4.23;3.57;;;;;;;24.27;63.50;97985.00;5036745;28;20217;-26
2023/09/06 06:22:14;;;;;;;6.73;4.57;;;;;;;24.27;63.17;97982.44;5037322;28;20225;-26
2023/09/06 06:24:44;;;;;;;4.13;3.70;;;;;;;24.28;63.10;97985.88;5043419;28;20194;-26
2023/09/06 06:27:11;;;;;;;5.33;3.80;;;;;;;24.27;62.34;97990.13;5034286;28;20563;-26
2023/09/06 06:29:38;;;;;;;6.27;4.13;;;;;;;24.28;62.59;97985.88;5047895;28;20225;-26
2023/09/06 06:32:05;;;;;;;7.30;4.07;;;;;;;24.25;62.42;97978.94;5042837;28;20222;-26
2023/09/06 06:34:32;;;;;;;7.70;4.57;;;;;;;24.27;60.64;97986.69;5037266;28;20206;-26
2023/09/06 06:36:58;;;;;;;9.10;4.87;;;;;;;24.24;59.12;97979.78;5036227;28;20202;-26
2023/09/06 06:39:26;;;;;;;10.27;4.70;;;;;;;24.24;59.64;97986.59;5039942;28;20206;-26
2023/09/06 06:41:52;;;;;;;16.07;4.53;;;;;;;24.21;60.59;97979.69;5050577;22;20252;-32
2023/09/06 06:44:19;;;;;;;4.40;3.90;;;;;;;24.21;60.99;97981.38;5032264;28;20710;-30
2023/09/06 06:46:45;;;;;;;7.03;3.70;;;;;;;24.21;61.14;97984.84;5015270;28;20664;-29
2023/09/06 06:49:12;;;;;;;5.47;3.80;;;;;;;24.19;61.34;97983.91;5030593;28;20247;-27
2023/09/06 06:51:39;;;;;;;6.53;3.37;;;;;;;24.18;61.82;97984.75;5030046;28;20573;-30
2023/09/06 06:54:09;;;;;;;4.87;3.43;;;;;;;24.18;61.76;97989.91;5009105;28;20268;-27
2023/09/06 06:56:36;;;;;;;6.07;3.37;;;;;;;24.17;62.33;97992.41;5013311;28;20206;-34
2023/09/06 06:59:03;;;;;;;5.23;2.90;;;;;;;24.16;62.18;97988.13;5012269;28;20210;-27
2023/09/06 07:01:31;;;;;;;4.60;3.10;;;;;;;24.14;62.32;97982.94;5013340;28;20202;-27
2023/09/06 07:03:57;;;;;;;6.17;3.60;;;;;;;24.13;62.14;97986.31;5008506;28;20227;-28
2023/09/06 07:06:24;;;;;;;3.37;3.07;;;;;;;24.14;62.63;97985.53;5013026;28;20252;-27
2023/09/06 07:08:52;;;;;;;4.23;3.30;;;;;;;24.12;62.29;97989.72;5013682;28;20226;-27
2023/09/06 07:11:19;;;;;;;4.37;3.50;;;;;;;24.13;62.75;97999.16;5013723;28;20276;-27
2023/09/06 07:13:47;;;;;;;4.63;2.80;;;;;;;24.13;62.44;97994.03;5013715;28;20225;-31
2023/09/06 07:16:15;;;;;;;4.73;3.03;;;;;;;24.13;62.88;97995.75;5012511;28;20299;-30
2023/09/06 07:18:42;;;;;;;4.00;3.27;;;;;;;24.13;62.93;97998.31;5012185;28;20194;-29
2023/09/06 07:21:09;;;;;;;3.70;2.90;;;;;;;24.11;63.10;97990.56;5013869;28;20253;-27
2023/09/06 07:23:36;;;;;;;7.97;3.47;;;;;;;24.13;62.92;97996.59;4996014;28;20406;-27
2023/09/06 07:26:04;;;;;;;3.73;3.13;;;;;;;24.13;63.19;97994.03;5013392;28;20206;-28
2023/09/06 07:28:42;;;;;;;3.90;3.30;;;;;;;24.12;62.91;97984.59;5013094;28;20229;-29
2023/09/06 07:31:08;;;;;;;4.37;3.10;;;;;;;24.13;63.38;97988.03;5012767;28;20202;-29
2023/09/06 07:33:35;;;;;;;4.37;3.40;;;;;;;24.11;63.11;97988.00;5012662;28;20226;-27
2023/09/06 07:36:02;;;;;;;3.67;3.07;;;;;;;24.12;63.17;97988.84;5011869;28;20633;-27
2023/09/06 07:38:29;;;;;;;6.87;3.50;;;;;;;24.11;63.46;97993.13;5003241;28;20248;-30
2023/09/06 07:40:57;;;;;;;7.30;3.20;;;;;;;24.11;63.26;97990.56;5006590;28;20256;-27
2023/09/06 07:43:25;;;;;;;6.47;3.50;;;;;;;24.12;63.57;97989.72;5002421;28;20714;-27
2023/09/06 07:45:52;;;;;;;4.10;3.37;;;;;;;24.12;63.42;97988.84;5002194;28;20214;-27
2023/09/06 07:48:19;;;;;;;5.47;3.73;;;;;;;24.12;63.56;97984.59;5005265;28;20276;-27
2023/09/06 07:50:47;;;;;;;4.87;3.43;;;;;;;24.11;63.61;97995.72;5003894;28;20587;-27
2023/09/06 07:53:13;;;;;;;4.83;3.30;;;;;;;24.11;63.20;97994.81;5004029;28;20630;-27
2023/09/06 07:55:48;;;;;;;3.77;3.33;;;;;;;24.11;63.51;97997.41;5003218;28;20618;-27
2023/09/06 07:58:15;;;;;;;4.87;3.20;;;;;;;24.10;63.49;97991.38;5004831;28;20756;-27
2023/09/06 08:00:42;;;;;;;5.93;3.10;;;;;;;24.10;63.75;97998.25;5002863;28;20202;-27
2023/09/06 08:03:09;;;;;;;4.57;3.30;;;;;;;24.09;63.86;97992.22;5006242;28;20222;-28
2023/09/06 08:05:36;;;;;;;6.43;3.40;;;;;;;24.10;63.91;97995.66;5009595;28;20226;-30
2023/09/06 08:08:04;;;;;;;3.80;2.97;;;;;;;24.09;63.85;97989.66;5003858;28;20252;-27
2023/09/06 08:10:31;;;;;;;6.07;3.40;;;;;;;24.09;63.48;97988.78;5003680;28;20308;-28
2023/09/06 08:12:57;;;;;;;4.23;3.20;;;;;;;24.10;63.72;97990.53;5000757;28;20226;-27
2023/09/06 08:15:24;;;;;;;3.93;3.13;;;;;;;24.10;63.62;97993.09;5005494;28;20199;-28
2023/09/06 08:17:51;;;;;;;5.50;3.20;;;;;;;24.08;63.89;97997.31;4986114;28;20621;-28
2023/09/06 08:20:18;;;;;;;4.03;3.17;;;;;;;24.09;63.52;97992.22;4999040;28;20670;-30
2023/09/06 08:22:47;;;;;;;3.30;2.97;;;;;;;24.08;63.68;97990.50;5007276;28;20226;-27
2023/09/06 08:25:14;;;;;;;3.90;3.20;;;;;;;24.09;64.01;98001.63;5006023;28;20241;-27
2023/09/06 08:27:41;;;;;;;3.60;3.20;;;;;;;24.09;63.77;97997.34;5005575;28;20206;-27
2023/09/06 08:30:12;;;;;;;6.73;3.50;;;;;;;24.10;64.19;98000.81;5004490;28;20218;-27
2023/09/06 08:32:42;;;;;;;4.23;3.10;;;;;;;24.09;63.79;97999.91;4998728;28;20353;-27
2023/09/06 08:35:11;;;;;;;3.77;3.47;;;;;;;24.10;63.78;97995.66;5006316;28;20225;-30
2023/09/06 08:37:38;;;;;;;3.83;3.30;;;;;;;24.07;64.12;97993.03;5007123;28;20264;-27
2023/09/06 08:40:05;;;;;;;4.10;3.70;;;;;;;24.08;64.03;97993.06;5001412;28;20637;-27
2023/09/06 08:42:35;;;;;;;3.97;3.33;;;;;;;24.09;63.77;97997.34;5006014;28;20226;-29
2023/09/06 08:45:04;;;;;;;3.87;2.80;;;;;;;24.09;64.32;97994.78;5002671;28;20207;-30
2023/09/06 08:47:31;;;;;;;3.87;3.10;;;;;;;24.10;64.07;98000.81;5003866;28;20264;-27
2023/09/06 08:49:58;;;;;;;3.67;3.17;;;;;;;24.07;64.11;97990.44;5002242;28;20693;-27
2023/09/06 08:52:24;;;;;;;3.10;2.80;;;;;;;24.09;64.11;97997.34;4986326;28;20222;-32
2023/09/06 08:54:51;;;;;;;4.63;3.13;;;;;;;24.09;64.22;97992.22;4987466;28;20218;-27
2023/09/06 08:57:19;;;;;;;3.63;3.17;;;;;;;24.09;64.00;97993.91;4987834;28;20256;-27
2023/09/06 08:59:49;;;;;;;3.30;3.00;;;;;;;24.10;64.06;97995.66;4987767;28;20226;-27
2023/09/06 09:02:16;;;;;;;3.70;3.17;;;;;;;24.10;64.03;97995.66;5004571;28;20289;-27
2023/09/06 09:04:42;;;;;;;5.93;3.20;;;;;;;24.11;64.09;98000.84;5005583;28;20230;-27
2023/09/06 09:07:10;;;;;;;3.13;2.90;;;;;;;24.10;64.16;98003.38;5006613;28;20598;-27
2023/09/06 09:10:07;;;;;;;4.47;3.20;;;;;;;24.10;64.16;97996.50;5006040;28;20256;-28
2023/09/06 09:12:36;;;;;;;5.20;3.30;;;;;;;24.09;64.49;97993.91;5004274;28;20230;-27
2023/09/06 09:15:03;;;;;;;4.13;3.60;;;;;;;24.11;64.06;97997.41;4989365;28;20260;-27
2023/09/06 09:17:49;;;;;;;3.80;3.20;;;;;;;24.10;64.08;97999.09;5006842;28;20217;-27
2023/09/06 09:20:27;;;;;;;4.03;3.40;;;;;;;24.10;64.06;97999.09;5003387;28;20195;-27
2023/09/06 09:23:01;;;;;;;3.60;3.13;;;;;;;24.11;64.42;97999.97;5003582;28;20226;-27
2023/09/06 09:25:29;;;;;;;3.70;3.00;;;;;;;24.11;64.18;98005.09;5006829;28;20197;-27
2023/09/06 09:27:57;;;;;;;3.70;2.70;;;;;;;24.09;64.29;98005.06;5007391;28;20210;-31
2023/09/06 09:30:26;;;;;;;3.43;3.10;;;;;;;24.11;64.42;98007.66;5008290;28;20236;-28
2023/09/06 09:32:58;;;;;;;5.60;3.20;;;;;;;24.10;64.32;98005.94;5007211;28;20233;-27
2023/09/06 09:35:25;;;;;;;3.67;2.87;;;;;;;24.11;64.32;98012.81;5009516;28;20258;-27
2023/09/06 09:37:52;;;;;;;4.70;3.30;;;;;;;24.11;64.11;98010.25;4997277;28;20206;-27
2023/09/06 09:40:20;;;;;;;4.27;3.00;;;;;;;24.10;64.15;98009.34;5005018;28;20209;-27
2023/09/06 09:42:56;;;;;;;5.83;3.00;;;;;;;24.11;64.35;98008.56;5005530;28;20345;-28
2023/09/06 09:45:24;;;;;;;4.17;2.80;;;;;;;24.10;63.94;98006.78;5004792;28;20210;-30
2023/09/06 09:47:54;;;;;;;3.30;2.83;;;;;;;24.11;64.14;98007.66;5006254;28;20210;-29
2023/09/06 09:50:21;;;;;;;3.73;3.17;;;;;;;24.10;64.51;98006.78;5009435;28;20269;-27
2023/09/06 09:52:48;;;;;;;3.63;3.10;;;;;;;24.10;64.50;98006.78;5007019;28;20277;-28
2023/09/06 09:55:17;;;;;;;3.27;2.80;;;;;;;24.07;64.26;98003.28;5010444;28;20206;-29
2023/09/06 09:57:45;;;;;;;3.40;2.67;;;;;;;24.08;64.33;97994.75;4975619;28;20205;-27
2023/09/06 10:00:13;;;;;;;2.90;2.60;;;;;;;24.10;64.22;97993.94;5014120;28;20673;-29
2023/09/06 10:02:45;;;;;;;4.03;3.00;;;;;;;24.09;64.53;97993.91;5011725;28;20711;-27
2023/09/06 10:05:19;;;;;;;5.60;2.70;;;;;;;24.09;64.70;97992.22;4993863;28;20696;-27
2023/09/06 10:07:47;;;;;;;4.80;2.70;;;;;;;24.09;64.33;97988.78;4982518;28;20301;-27
2023/09/06 10:10:15;;;;;;;4.33;3.10;;;;;;;24.09;64.45;97986.19;5011194;28;20222;-32
2023/09/06 10:12:43;;;;;;;3.33;3.03;;;;;;;24.09;64.13;97979.38;5007942;28;20227;-28
2023/09/06 10:15:13;;;;;;;3.70;2.80;;;;;;;24.09;64.60;97979.38;4994836;28;20245;-32
2023/09/06 10:17:41;;;;;;;3.30;2.77;;;;;;;24.10;64.57;97980.25;4995519;28;20248;-29
2023/09/06 10:20:22;;;;;;;3.83;2.80;;;;;;;24.09;64.53;97973.38;4993269;28;20206;-27
2023/09/06 10:22:52;;;;;;;7.03;3.13;;;;;;;24.09;64.56;97974.25;4995824;28;20609;-28
2023/09/06 10:25:18;;;;;;;4.80;3.10;;;;;;;24.10;64.34;97975.13;5006315;28;20273;-30
2023/09/06 10:27:46;;;;;;;3.67;3.00;;;;;;;24.09;64.16;97975.94;5012076;28;20245;-27
2023/09/06 10:30:17;;;;;;;2.90;2.70;;;;;;;24.09;64.30;97979.38;5012801;28;20292;-27
2023/09/06 10:32:45;;;;;;;4.10;3.20;;;;;;;24.08;64.70;97977.66;5009332;28;20226;-27
2023/09/06 10:35:41;;;;;;;3.17;2.57;;;;;;;24.09;64.56;97976.81;5012779;28;20312;-29
2023/09/06 10:38:18;;;;;;;3.80;2.90;;;;;;;24.08;64.50;97977.66;5005238;28;20677;-27
2023/09/06 10:40:47;;;;;;;3.87;2.80;;;;;;;24.10;64.35;97970.00;5010486;28;20221;-31
2023/09/06 10:43:14;;;;;;;4.87;3.03;;;;;;;24.09;64.42;97970.78;5012315;28;20230;-27
2023/09/06 10:45:54;;;;;;;5.00;2.90;;;;;;;24.09;64.74;97965.66;5012460;28;20197;-31
2023/09/06 10:48:21;;;;;;;4.00;3.00;;;;;;;24.09;64.73;97973.38;4993324;28;20257;-27
2023/09/06 10:51:07;;;;;;;3.77;3.20;;;;;;;24.09;64.86;97963.09;4994154;28;20605;-33
2023/09/06 10:53:34;;;;;;;3.47;2.93;;;;;;;24.09;64.75;97969.09;5011549;28;20649;-33
2023/09/06 10:56:02;;;;;;;3.00;2.57;;;;;;;24.10;64.43;97959.72;5001678;28;20703;-27
2023/09/06 10:58:29;;;;;;;3.37;3.07;;;;;;;24.04;64.69;97950.13;5008065;28;20256;-27
2023/09/06 11:01:12;;;;;;;4.60;3.00;;;;;;;24.10;64.44;97963.13;5009535;28;20418;-28
2023/09/06 11:03:40;;;;;;;2.97;2.67;;;;;;;24.11;64.65;97964.91;5010095;28;20226;-27
2023/09/06 11:06:07;;;;;;;2.90;2.70;;;;;;;24.11;64.54;97953.75;5000126;28;20580;-27
2023/09/06 11:08:33;;;;;;;3.20;2.90;;;;;;;24.13;64.45;97952.09;5007587;28;20202;-27
2023/09/06 11:11:09;;;;;;;3.53;2.80;;;;;;;24.13;64.57;97941.81;5002048;28;20684;-30
2023/09/06 11:13:40;;;;;;;2.90;2.60;;;;;;;24.14;64.54;97940.97;5007336;28;20222;-28
2023/09/06 11:16:13;;;;;;;3.03;2.70;;;;;;;24.14;64.36;97935.84;5007180;28;20289;-31
2023/09/06 11:18:47;;;;;;;2.83;2.53;;;;;;;24.14;64.32;97935.84;5005435;28;20230;-29
2023/09/06 11:21:18;;;;;;;2.87;2.60;;;;;;;24.15;64.13;97946.16;5001772;28;20206;-32
2023/09/06 11:23:46;;;;;;;3.00;2.70;;;;;;;24.16;64.20;97940.19;5002737;28;20287;-31
2023/09/06 11:26:12;;;;;;;3.00;2.70;;;;;;;24.17;64.31;97944.50;5007821;28;20794;-27
2023/09/06 11:28:42;;;;;;;2.90;2.60;;;;;;;24.17;64.33;97941.94;4991980;28;20265;-38
2023/09/06 11:31:25;;;;;;;2.63;2.43;;;;;;;24.19;64.42;97936.84;5005766;28;20225;-27
2023/09/06 11:33:55;;;;;;;3.10;2.70;;;;;;;24.18;64.19;97935.97;5002772;28;20238;-30
2023/09/06 11:36:26;;;;;;;3.17;2.73;;;;;;;24.19;64.25;97935.13;5006794;28;20214;-32
2023/09/06 11:38:54;;;;;;;3.80;2.40;;;;;;;24.19;64.17;97926.56;4992889;28;20202;-29
2023/09/06 11:41:21;;;;;;;3.10;2.80;;;;;;;24.20;64.01;97924.03;4971584;28;20264;-27